Time;durP1;ratioP1;P1;durP2;ratioP2;P2;SDS_P1;SDS_P2;PMS_P1;PMS_P2;Temp;Humidity;BMP_temperature;BMP_pressure;BME280_temperature;BME280_humidity;BME280_pressure;Samples;Min_cycle;Max_cycle;Signal;HPM_P1;HPM_P2
2021/06/22 00:00:25;;;;;;;5.13;2.10;;;;;;;;;;5028089;28;20478;-68
2021/06/22 00:02:53;;;;;;;4.07;2.60;;;;;;;;;;5004762;28;20462;-67
2021/06/22 00:05:21;;;;;;;3.40;2.53;;;;;;;;;;5031881;28;20444;-67
2021/06/22 00:07:49;;;;;;;3.60;2.30;;;;;;;;;;4997338;28;20455;-67
2021/06/22 00:10:16;;;;;;;5.80;2.20;;;;;;;;;;5033820;28;20583;-66
2021/06/22 00:12:43;;;;;;;3.10;2.33;;;;;;;;;;5016098;28;20493;-66
2021/06/22 00:15:12;;;;;;;3.93;2.40;;;;;;;;;;5018700;28;20476;-67
2021/06/22 00:17:39;;;;;;;6.13;2.77;;;;;;;;;;5009596;28;20478;-65
2021/06/22 00:20:09;;;;;;;4.00;2.50;;;;;;;;;;5017163;28;20500;-66
2021/06/22 00:22:36;;;;;;;6.10;2.90;;;;;;;;;;5007295;28;20450;-65
2021/06/22 00:25:03;;;;;;;5.57;2.30;;;;;;;;;;5016469;28;20861;-66
2021/06/22 00:27:30;;;;;;;5.90;2.40;;;;;;;;;;5019216;28;20461;-66
2021/06/22 00:29:57;;;;;;;6.93;2.67;;;;;;;;;;5023080;28;20474;-66
2021/06/22 00:32:24;;;;;;;5.17;2.70;;;;;;;;;;5010837;28;20489;-67
2021/06/22 00:34:52;;;;;;;3.07;2.20;;;;;;;;;;5014657;28;20476;-66
2021/06/22 00:37:20;;;;;;;3.80;2.27;;;;;;;;;;4996014;28;20462;-66
2021/06/22 00:39:47;;;;;;;5.13;2.50;;;;;;;;;;5006102;28;20486;-66
2021/06/22 00:42:15;;;;;;;4.60;2.80;;;;;;;;;;5013184;28;21142;-67
2021/06/22 00:44:45;;;;;;;4.93;2.63;;;;;;;;;;5015387;28;20952;-66
2021/06/22 00:47:12;;;;;;;7.07;2.23;;;;;;;;;;5001373;28;20980;-67
2021/06/22 00:49:39;;;;;;;3.77;2.30;;;;;;;;;;5012670;28;20473;-67
2021/06/22 00:52:07;;;;;;;4.27;2.27;;;;;;;;;;5013990;28;20466;-67
2021/06/22 00:54:36;;;;;;;3.73;2.67;;;;;;;;;;5012602;28;20492;-66
2021/06/22 00:57:03;;;;;;;4.93;2.40;;;;;;;;;;5010379;28;20470;-66
2021/06/22 00:59:31;;;;;;;4.90;2.40;;;;;;;;;;5002440;28;20477;-66
2021/06/22 01:01:58;;;;;;;5.87;2.40;;;;;;;;;;5009263;28;20520;-66
2021/06/22 01:04:27;;;;;;;3.67;2.40;;;;;;;;;;5020133;28;20461;-66
2021/06/22 01:06:55;;;;;;;5.00;2.53;;;;;;;;;;5012035;28;20467;-66
2021/06/22 01:09:22;;;;;;;3.60;2.43;;;;;;;;;;5009744;28;20468;-66
2021/06/22 01:11:51;;;;;;;2.53;2.10;;;;;;;;;;5010804;28;20564;-66
2021/06/22 01:14:18;;;;;;;3.63;2.70;;;;;;;;;;4998801;28;20495;-67
2021/06/22 01:16:45;;;;;;;6.07;2.50;;;;;;;;;;5017590;28;20544;-66
2021/06/22 01:19:14;;;;;;;7.87;2.73;;;;;;;;;;5030630;28;20975;-66
2021/06/22 01:21:42;;;;;;;3.50;2.50;;;;;;;;;;5009050;28;20516;-66
2021/06/22 01:24:10;;;;;;;3.80;2.70;;;;;;;;;;5004133;28;20484;-66
2021/06/22 01:26:38;;;;;;;6.67;2.90;;;;;;;;;;5003050;28;20465;-66
2021/06/22 01:29:06;;;;;;;4.70;2.60;;;;;;;;;;5003507;28;20471;-66
2021/06/22 01:31:33;;;;;;;6.83;3.17;;;;;;;;;;5007363;28;20945;-66
2021/06/22 01:34:00;;;;;;;5.03;2.77;;;;;;;;;;5012353;28;20478;-67
2021/06/22 01:36:29;;;;;;;6.10;3.10;;;;;;;;;;5014295;28;20808;-66
2021/06/22 01:38:58;;;;;;;4.03;2.70;;;;;;;;;;5019245;28;20462;-66
2021/06/22 01:41:25;;;;;;;5.90;2.40;;;;;;;;;;5002044;28;20473;-66
2021/06/22 01:43:52;;;;;;;5.47;2.70;;;;;;;;;;5021279;28;20981;-67
2021/06/22 01:46:19;;;;;;;3.90;2.73;;;;;;;;;;5013845;28;20462;-66
2021/06/22 01:48:46;;;;;;;7.53;2.80;;;;;;;;;;5011482;28;20466;-66
2021/06/22 01:51:14;;;;;;;6.83;2.60;;;;;;;;;;5013509;28;20499;-66
2021/06/22 01:53:41;;;;;;;7.50;2.70;;;;;;;;;;5007328;28;21001;-66
2021/06/22 01:56:12;;;;;;;3.00;2.43;;;;;;;;;;4998112;28;20469;-67
2021/06/22 01:58:39;;;;;;;4.13;2.80;;;;;;;;;;5012148;28;20465;-67
2021/06/22 02:01:06;;;;;;;5.43;3.00;;;;;;;;;;5008442;28;20492;-66
2021/06/22 02:03:33;;;;;;;2.93;2.33;;;;;;;;;;5012607;28;20461;-66
2021/06/22 02:06:00;;;;;;;4.63;2.77;;;;;;;;;;5029540;28;20473;-67
2021/06/22 02:08:27;;;;;;;6.90;2.80;;;;;;;;;;5011174;28;20460;-67
2021/06/22 02:10:55;;;;;;;6.60;2.40;;;;;;;;;;5011894;28;20505;-66
2021/06/22 02:13:25;;;;;;;7.63;3.00;;;;;;;;;;5017673;28;20485;-66
2021/06/22 02:15:52;;;;;;;3.77;2.60;;;;;;;;;;5012094;28;20456;-66
2021/06/22 02:18:19;;;;;;;5.43;3.20;;;;;;;;;;5031508;28;21023;-66
2021/06/22 02:20:46;;;;;;;4.73;3.10;;;;;;;;;;5002907;28;20475;-66
2021/06/22 02:23:14;;;;;;;3.63;2.33;;;;;;;;;;5011868;28;20476;-66
2021/06/22 02:25:41;;;;;;;5.20;2.83;;;;;;;;;;5008720;28;20450;-66
2021/06/22 02:28:09;;;;;;;10.13;2.90;;;;;;;;;;5025767;28;21047;-66
2021/06/22 02:30:38;;;;;;;6.17;2.60;;;;;;;;;;5014248;28;20480;-66
2021/06/22 02:33:06;;;;;;;4.63;2.57;;;;;;;;;;5025421;28;20555;-66
2021/06/22 02:35:33;;;;;;;5.77;2.27;;;;;;;;;;5025821;28;20452;-66
2021/06/22 02:38:00;;;;;;;5.27;2.43;;;;;;;;;;5015702;28;20472;-66
2021/06/22 02:40:27;;;;;;;3.97;2.60;;;;;;;;;;5028029;28;20465;-65
2021/06/22 02:42:55;;;;;;;4.17;2.00;;;;;;;;;;5025313;28;20475;-66
2021/06/22 02:45:22;;;;;;;5.10;3.23;;;;;;;;;;5007451;28;20633;-66
2021/06/22 02:47:50;;;;;;;6.90;2.70;;;;;;;;;;5010988;28;20461;-66
2021/06/22 02:50:18;;;;;;;4.43;2.60;;;;;;;;;;5021226;28;20492;-66
2021/06/22 02:52:45;;;;;;;9.27;2.43;;;;;;;;;;5022142;28;20470;-66
2021/06/22 02:55:19;;;;;;;3.47;2.00;;;;;;;;;;4991742;28;20486;-66
2021/06/22 02:57:46;;;;;;;6.87;2.60;;;;;;;;;;5012845;28;20466;-66
2021/06/22 03:00:14;;;;;;;5.00;2.80;;;;;;;;;;4996096;28;20474;-66
2021/06/22 03:02:41;;;;;;;4.80;2.40;;;;;;;;;;5018780;28;20465;-66
2021/06/22 03:05:10;;;;;;;5.70;2.63;;;;;;;;;;5015335;28;20491;-66
2021/06/22 03:07:38;;;;;;;6.00;3.60;;;;;;;;;;5013989;28;20461;-66
2021/06/22 03:10:06;;;;;;;9.83;2.90;;;;;;;;;;5013136;28;20479;-66
2021/06/22 03:12:33;;;;;;;4.53;2.40;;;;;;;;;;5013243;28;20461;-66
2021/06/22 03:15:01;;;;;;;3.40;2.87;;;;;;;;;;5023948;28;20856;-66
2021/06/22 03:17:28;;;;;;;6.20;2.57;;;;;;;;;;5028598;28;20468;-66
2021/06/22 03:19:55;;;;;;;3.70;2.10;;;;;;;;;;5003898;28;20486;-66
2021/06/22 03:22:23;;;;;;;6.07;2.40;;;;;;;;;;4996162;28;20466;-67
2021/06/22 03:24:50;;;;;;;4.67;3.00;;;;;;;;;;4997802;28;20456;-67
2021/06/22 03:27:18;;;;;;;2.83;2.10;;;;;;;;;;5005877;28;20978;-67
2021/06/22 03:29:45;;;;;;;3.80;2.57;;;;;;;;;;5014413;28;20473;-67
2021/06/22 03:32:12;;;;;;;6.27;2.50;;;;;;;;;;5025351;28;20553;-67
2021/06/22 03:34:39;;;;;;;5.97;2.47;;;;;;;;;;5017325;28;20488;-66
2021/06/22 03:37:07;;;;;;;4.97;2.80;;;;;;;;;;5025114;28;20470;-66
2021/06/22 03:39:36;;;;;;;4.67;2.23;;;;;;;;;;5014384;28;20469;-66
2021/06/22 03:42:03;;;;;;;4.10;2.10;;;;;;;;;;5014573;28;20466;-66
2021/06/22 03:44:30;;;;;;;3.60;2.27;;;;;;;;;;5018610;28;20971;-66
2021/06/22 03:46:57;;;;;;;4.70;2.87;;;;;;;;;;5016074;28;20481;-66
2021/06/22 03:49:24;;;;;;;4.30;2.47;;;;;;;;;;5014392;28;20446;-66
2021/06/22 03:51:53;;;;;;;7.07;3.20;;;;;;;;;;5025872;28;20998;-66
2021/06/22 03:54:20;;;;;;;7.67;2.37;;;;;;;;;;5034550;28;20538;-66
2021/06/22 03:56:49;;;;;;;5.43;2.23;;;;;;;;;;5022160;28;20477;-66
2021/06/22 03:59:16;;;;;;;4.83;2.60;;;;;;;;;;5013252;28;20445;-66
2021/06/22 04:01:43;;;;;;;9.87;2.53;;;;;;;;;;5006119;28;20450;-66
2021/06/22 04:04:10;;;;;;;5.43;2.67;;;;;;;;;;5007802;28;20812;-65
2021/06/22 04:06:37;;;;;;;8.27;3.23;;;;;;;;;;5014768;28;20466;-66
2021/06/22 04:09:04;;;;;;;4.90;2.50;;;;;;;;;;5013388;28;20961;-66
2021/06/22 04:11:31;;;;;;;3.60;2.40;;;;;;;;;;5012704;28;20462;-66
2021/06/22 04:14:00;;;;;;;5.30;2.80;;;;;;;;;;4994081;28;20837;-65
2021/06/22 04:16:27;;;;;;;6.93;2.60;;;;;;;;;;5015817;28;20462;-65
2021/06/22 04:18:54;;;;;;;9.93;2.70;;;;;;;;;;5013656;28;20445;-65
2021/06/22 04:21:21;;;;;;;5.30;2.40;;;;;;;;;;5017367;28;20486;-65
2021/06/22 04:23:49;;;;;;;7.00;2.47;;;;;;;;;;5022132;28;20991;-65
2021/06/22 04:26:17;;;;;;;5.07;2.73;;;;;;;;;;5030814;28;20461;-65
2021/06/22 04:28:44;;;;;;;4.30;2.33;;;;;;;;;;5026911;28;20455;-65
2021/06/22 04:31:13;;;;;;;3.87;2.50;;;;;;;;;;5025602;28;20463;-65
2021/06/22 04:33:40;;;;;;;3.33;2.10;;;;;;;;;;5004074;28;20824;-65
2021/06/22 04:36:07;;;;;;;8.10;3.10;;;;;;;;;;5015018;28;20466;-66
2021/06/22 04:38:35;;;;;;;6.10;2.40;;;;;;;;;;5001810;28;20464;-67
2021/06/22 04:41:02;;;;;;;6.17;2.00;;;;;;;;;;5028275;28;20472;-66
2021/06/22 04:43:29;;;;;;;5.97;2.80;;;;;;;;;;5003130;28;20472;-66
2021/06/22 04:45:56;;;;;;;7.10;2.57;;;;;;;;;;5026246;28;20939;-66
2021/06/22 04:48:24;;;;;;;5.87;2.73;;;;;;;;;;5006727;28;20481;-66
2021/06/22 04:50:57;;;;;;;12.03;2.97;;;;;;;;;;5027163;28;20489;-65
2021/06/22 04:53:24;;;;;;;9.57;3.20;;;;;;;;;;5013247;28;20450;-66
2021/06/22 04:55:51;;;;;;;5.30;2.50;;;;;;;;;;5011020;28;20489;-65
2021/06/22 04:58:19;;;;;;;5.10;2.40;;;;;;;;;;5030585;28;20454;-66
2021/06/22 05:00:46;;;;;;;5.50;2.50;;;;;;;;;;5008689;28;20470;-67
2021/06/22 05:03:13;;;;;;;6.47;3.10;;;;;;;;;;5018284;28;20475;-66
2021/06/22 05:05:41;;;;;;;4.97;2.60;;;;;;;;;;5028244;28;20440;-66
2021/06/22 05:08:08;;;;;;;7.20;2.67;;;;;;;;;;5021878;28;20963;-67
2021/06/22 05:10:36;;;;;;;9.73;2.60;;;;;;;;;;5022685;28;20482;-67
2021/06/22 05:13:03;;;;;;;6.00;2.77;;;;;;;;;;5011288;23;20498;-64
2021/06/22 05:15:30;;;;;;;6.70;2.67;;;;;;;;;;5005827;28;20490;-66
2021/06/22 05:17:57;;;;;;;4.83;2.63;;;;;;;;;;5004281;28;20454;-66
2021/06/22 05:20:24;;;;;;;6.40;2.40;;;;;;;;;;5000167;28;20469;-66
2021/06/22 05:22:52;;;;;;;4.83;2.60;;;;;;;;;;5001382;28;20521;-65
2021/06/22 05:25:20;;;;;;;6.00;2.57;;;;;;;;;;4973847;28;20980;-65
2021/06/22 05:27:47;;;;;;;6.33;2.80;;;;;;;;;;4987490;28;20473;-66
2021/06/22 05:30:14;;;;;;;6.90;2.60;;;;;;;;;;4992980;28;20819;-65
2021/06/22 05:32:41;;;;;;;4.23;2.40;;;;;;;;;;4988014;28;20482;-66
2021/06/22 05:35:09;;;;;;;4.33;2.60;;;;;;;;;;4983045;28;21001;-63
2021/06/22 05:37:37;;;;;;;5.17;2.90;;;;;;;;;;4976628;28;20471;-66
2021/06/22 05:40:07;;;;;;;7.37;2.73;;;;;;;;;;4979452;28;20454;-66
2021/06/22 05:42:34;;;;;;;5.73;2.77;;;;;;;;;;4991027;28;20471;-67
2021/06/22 05:45:01;;;;;;;4.43;2.37;;;;;;;;;;4992470;28;20461;-66
2021/06/22 05:47:28;;;;;;;6.43;2.60;;;;;;;;;;4979779;28;20455;-66
2021/06/22 05:49:55;;;;;;;6.30;2.70;;;;;;;;;;4987697;28;20462;-66
2021/06/22 05:52:22;;;;;;;4.70;2.57;;;;;;;;;;4981232;28;20517;-65
2021/06/22 05:54:49;;;;;;;10.80;2.50;;;;;;;;;;4987934;28;20483;-66
2021/06/22 05:57:18;;;;;;;4.80;2.30;;;;;;;;;;4982811;28;20474;-66
2021/06/22 05:59:45;;;;;;;5.40;1.97;;;;;;;;;;4991800;28;20478;-66
2021/06/22 06:02:12;;;;;;;7.37;2.67;;;;;;;;;;4980250;28;20467;-67
2021/06/22 06:04:39;;;;;;;5.33;2.40;;;;;;;;;;4984589;28;20519;-66
2021/06/22 06:07:06;;;;;;;4.90;2.80;;;;;;;;;;4985735;28;20561;-65
2021/06/22 06:09:33;;;;;;;4.33;2.17;;;;;;;;;;4992434;28;20469;-65
2021/06/22 06:12:00;;;;;;;3.77;2.33;;;;;;;;;;4990839;28;20466;-64
2021/06/22 06:14:29;;;;;;;5.00;2.37;;;;;;;;;;4992059;28;20497;-65
2021/06/22 06:16:56;;;;;;;5.73;2.37;;;;;;;;;;4985117;28;20474;-63
2021/06/22 06:19:23;;;;;;;3.73;2.20;;;;;;;;;;4982408;28;20462;-65
2021/06/22 06:21:51;;;;;;;5.33;2.47;;;;;;;;;;4975894;28;20459;-65
2021/06/22 06:24:18;;;;;;;4.60;2.60;;;;;;;;;;4991509;28;20576;-65
2021/06/22 06:26:53;;;;;;;3.67;2.23;;;;;;;;;;4989440;28;20454;-64
2021/06/22 06:29:27;;;;;;;4.27;2.57;;;;;;;;;;4989608;28;20481;-65
2021/06/22 06:31:55;;;;;;;5.13;2.07;;;;;;;;;;4982060;28;20532;-65
2021/06/22 06:34:23;;;;;;;2.80;2.33;;;;;;;;;;4991955;28;20487;-64
2021/06/22 06:36:50;;;;;;;5.60;2.80;;;;;;;;;;4990585;28;20457;-64
2021/06/22 06:39:17;;;;;;;2.90;2.10;;;;;;;;;;4992300;28;20453;-64
2021/06/22 06:41:44;;;;;;;6.73;2.30;;;;;;;;;;4991221;28;20962;-64
2021/06/22 06:44:11;;;;;;;4.53;1.90;;;;;;;;;;4987387;28;20470;-64
2021/06/22 06:46:38;;;;;;;5.00;2.73;;;;;;;;;;4991163;28;20999;-64
2021/06/22 06:49:07;;;;;;;5.20;2.20;;;;;;;;;;4992476;28;20553;-64
2021/06/22 06:51:34;;;;;;;4.67;2.37;;;;;;;;;;4988103;28;20807;-65
2021/06/22 06:54:01;;;;;;;5.00;2.73;;;;;;;;;;4990366;28;20470;-65
2021/06/22 06:56:28;;;;;;;7.03;3.03;;;;;;;;;;4990658;28;20482;-65
2021/06/22 06:58:55;;;;;;;4.03;2.80;;;;;;;;;;4992587;28;20446;-65
2021/06/22 07:01:22;;;;;;;6.50;3.20;;;;;;;;;;4986594;28;20447;-65
2021/06/22 07:03:49;;;;;;;5.53;4.07;;;;;;;;;;4989144;28;21036;-65
2021/06/22 07:06:18;;;;;;;7.87;3.20;;;;;;;;;;4990268;28;20443;-65
2021/06/22 07:08:45;;;;;;;5.93;3.53;;;;;;;;;;4992268;28;20450;-65
2021/06/22 07:11:12;;;;;;;6.23;3.37;;;;;;;;;;4988683;28;20979;-66
2021/06/22 07:13:40;;;;;;;7.30;2.23;;;;;;;;;;4991509;28;20490;-65
2021/06/22 07:16:07;;;;;;;5.97;3.00;;;;;;;;;;4977142;28;20854;-65
2021/06/22 07:18:34;;;;;;;9.63;3.70;;;;;;;;;;4986062;28;20455;-63
2021/06/22 07:21:01;;;;;;;5.80;2.90;;;;;;;;;;4972640;28;20452;-63
2021/06/22 07:23:29;;;;;;;5.00;2.80;;;;;;;;;;4990171;28;20474;-66
2021/06/22 07:25:57;;;;;;;6.13;2.57;;;;;;;;;;4988835;28;20820;-66
2021/06/22 07:28:24;;;;;;;5.33;2.10;;;;;;;;;;4991593;28;20453;-65
2021/06/22 07:30:51;;;;;;;5.07;2.20;;;;;;;;;;4991374;28;20832;-66
2021/06/22 07:33:19;;;;;;;8.50;2.70;;;;;;;;;;4991767;28;20477;-66
2021/06/22 07:35:46;;;;;;;7.40;2.70;;;;;;;;;;4990132;28;20482;-65
2021/06/22 07:38:13;;;;;;;5.67;2.60;;;;;;;;;;4991652;28;20453;-63
2021/06/22 07:40:41;;;;;;;7.70;3.03;;;;;;;;;;4990685;28;20963;-66
2021/06/22 07:43:08;;;;;;;12.73;2.87;;;;;;;;;;4993324;28;20468;-69
2021/06/22 07:45:36;;;;;;;8.27;3.00;;;;;;;;;;4993840;28;20454;-68
2021/06/22 07:48:04;;;;;;;3.90;2.10;;;;;;;;;;4995110;28;20458;-66
2021/06/22 07:50:31;;;;;;;9.87;2.97;;;;;;;;;;4994502;28;20454;-64
2021/06/22 07:53:01;;;;;;;6.00;3.00;;;;;;;;;;4975413;28;21024;-64
2021/06/22 07:55:28;;;;;;;4.50;2.37;;;;;;;;;;4980052;28;21069;-64
2021/06/22 07:57:56;;;;;;;8.97;3.40;;;;;;;;;;4994893;28;20455;-67
2021/06/22 08:00:41;;;;;;;6.47;2.50;;;;;;;;;;4991109;28;20955;-65
2021/06/22 08:03:09;;;;;;;5.50;2.63;;;;;;;;;;4994461;28;20482;-65
2021/06/22 08:05:36;;;;;;;5.50;2.57;;;;;;;;;;4993979;28;20810;-64
2021/06/22 08:08:03;;;;;;;5.00;2.60;;;;;;;;;;4994073;28;20837;-67
2021/06/22 08:10:30;;;;;;;7.90;2.33;;;;;;;;;;4987834;28;20946;-65
2021/06/22 08:12:59;;;;;;;3.97;2.60;;;;;;;;;;4994343;28;20482;-64
2021/06/22 08:15:26;;;;;;;9.23;2.60;;;;;;;;;;4990213;28;20502;-64
2021/06/22 08:17:53;;;;;;;10.10;2.50;;;;;;;;;;4994452;28;20450;-64
2021/06/22 08:20:21;;;;;;;6.43;3.20;;;;;;;;;;4992641;28;20976;-63
2021/06/22 08:22:52;;;;;;;7.90;2.80;;;;;;;;;;4974514;28;20823;-65
2021/06/22 08:25:19;;;;;;;3.30;2.13;;;;;;;;;;4988120;28;20447;-64
2021/06/22 08:27:47;;;;;;;3.37;2.00;;;;;;;;;;4993989;28;20819;-64
2021/06/22 08:30:16;;;;;;;4.83;2.50;;;;;;;;;;4993881;28;20454;-64
2021/06/22 08:32:43;;;;;;;3.07;1.90;;;;;;;;;;4993985;28;20478;-65
2021/06/22 08:35:10;;;;;;;5.13;2.60;;;;;;;;;;4992837;28;20869;-65
2021/06/22 08:37:37;;;;;;;4.00;2.40;;;;;;;;;;4993837;28;20462;-64
2021/06/22 08:40:05;;;;;;;4.17;2.17;;;;;;;;;;4994100;28;20461;-65
2021/06/22 08:42:33;;;;;;;4.47;2.30;;;;;;;;;;4993914;28;20455;-66
2021/06/22 08:45:01;;;;;;;3.30;2.00;;;;;;;;;;4994174;28;20447;-64
2021/06/22 08:47:29;;;;;;;3.77;2.03;;;;;;;;;;4993060;28;20446;-64
2021/06/22 08:49:57;;;;;;;3.97;2.13;;;;;;;;;;4993094;28;20462;-68
2021/06/22 08:52:25;;;;;;;2.80;1.90;;;;;;;;;;4993826;28;20446;-64
2021/06/22 08:54:53;;;;;;;4.63;2.70;;;;;;;;;;4993574;28;20450;-64
2021/06/22 08:57:20;;;;;;;4.33;2.00;;;;;;;;;;4992638;28;20468;-65
2021/06/22 08:59:48;;;;;;;4.23;2.10;;;;;;;;;;4993392;28;20450;-65
2021/06/22 09:02:15;;;;;;;4.73;1.80;;;;;;;;;;4988740;28;20456;-66
2021/06/22 09:04:44;;;;;;;4.50;2.23;;;;;;;;;;4977444;28;20573;-64
2021/06/22 09:07:12;;;;;;;4.73;2.17;;;;;;;;;;4992477;28;20453;-66
2021/06/22 09:09:40;;;;;;;4.47;2.50;;;;;;;;;;4993657;28;20457;-65
2021/06/22 09:12:08;;;;;;;3.27;1.87;;;;;;;;;;4993507;28;20508;-65
2021/06/22 09:14:36;;;;;;;4.30;2.40;;;;;;;;;;4992667;28;20985;-65
2021/06/22 09:17:03;;;;;;;4.60;2.70;;;;;;;;;;4992050;28;20858;-64
2021/06/22 09:19:31;;;;;;;2.67;1.90;;;;;;;;;;4978876;28;20958;-65
2021/06/22 09:22:14;;;;;;;4.50;2.50;;;;;;;;;;4991008;28;20454;-65
2021/06/22 09:25:01;;;;;;;6.10;2.53;;;;;;;;;;4980405;28;20471;-67
2021/06/22 09:27:43;;;;;;;3.50;2.47;;;;;;;;;;4985073;28;20463;-66
2021/06/22 09:30:11;;;;;;;3.63;2.40;;;;;;;;;;4988459;28;20538;-65
2021/06/22 09:32:38;;;;;;;4.17;2.43;;;;;;;;;;4978592;28;20462;-66
2021/06/22 09:35:08;;;;;;;3.53;2.20;;;;;;;;;;4979428;28;20465;-65
2021/06/22 09:37:49;;;;;;;4.17;2.60;;;;;;;;;;4992192;28;20509;-67
2021/06/22 09:40:26;;;;;;;3.83;2.50;;;;;;;;;;4992145;28;20439;-65
2021/06/22 09:42:54;;;;;;;4.63;2.20;;;;;;;;;;4992174;28;20882;-65
2021/06/22 09:45:23;;;;;;;2.53;2.00;;;;;;;;;;4991280;28;20454;-65
2021/06/22 09:47:50;;;;;;;4.07;2.20;;;;;;;;;;4984636;28;20452;-67
2021/06/22 09:50:35;;;;;;;4.03;2.43;;;;;;;;;;4979534;28;20453;-65
2021/06/22 09:53:17;;;;;;;6.50;2.57;;;;;;;;;;4990894;28;20478;-66
2021/06/22 09:55:45;;;;;;;7.17;2.43;;;;;;;;;;4991312;28;20482;-65
2021/06/22 09:58:13;;;;;;;5.67;2.70;;;;;;;;;;4992114;28;20796;-68
2021/06/22 10:00:41;;;;;;;3.70;2.30;;;;;;;;;;4987962;28;20524;-66
2021/06/22 10:03:10;;;;;;;2.10;1.90;;;;;;;;;;4983945;28;20868;-65
2021/06/22 10:05:50;;;;;;;3.90;2.27;;;;;;;;;;4988540;28;20461;-65
2021/06/22 10:08:17;;;;;;;2.90;1.97;;;;;;;;;;4984076;28;20442;-66
2021/06/22 10:10:46;;;;;;;4.43;2.13;;;;;;;;;;4991346;28;20458;-66
2021/06/22 10:13:34;;;;;;;4.17;2.20;;;;;;;;;;4982322;28;20498;-65
2021/06/22 10:16:21;;;;;;;4.30;2.47;;;;;;;;;;4987868;28;20990;-66
2021/06/22 10:18:48;;;;;;;4.10;2.07;;;;;;;;;;4991364;28;20451;-65
2021/06/22 10:21:16;;;;;;;4.00;2.20;;;;;;;;;;4983138;28;20468;-65
2021/06/22 10:23:44;;;;;;;6.70;2.70;;;;;;;;;;4989853;28;21033;-65
2021/06/22 10:26:12;;;;;;;3.80;2.50;;;;;;;;;;4991703;28;20534;-67
2021/06/22 10:28:40;;;;;;;3.13;2.00;;;;;;;;;;4991702;28;20861;-66
2021/06/22 10:31:07;;;;;;;4.07;2.23;;;;;;;;;;4974045;28;20837;-66
2021/06/22 10:33:34;;;;;;;4.83;2.00;;;;;;;;;;4976179;28;20478;-65
2021/06/22 10:36:01;;;;;;;4.00;2.10;;;;;;;;;;4976709;28;20495;-67
2021/06/22 10:38:34;;;;;;;3.47;2.20;;;;;;;;;;4975163;28;20452;-65
2021/06/22 10:41:02;;;;;;;3.83;1.90;;;;;;;;;;4992020;28;20446;-65
2021/06/22 10:43:37;;;;;;;5.40;2.40;;;;;;;;;;4991519;28;20470;-65
2021/06/22 10:46:06;;;;;;;2.97;2.20;;;;;;;;;;4991135;28;20453;-66
2021/06/22 10:48:40;;;;;;;5.20;2.30;;;;;;;;;;4978353;28;21195;-65
2021/06/22 10:51:22;;;;;;;2.60;1.83;;;;;;;;;;4976239;28;20485;-65
2021/06/22 10:53:49;;;;;;;4.17;2.03;;;;;;;;;;4991701;28;21004;-66
2021/06/22 10:56:17;;;;;;;3.97;2.07;;;;;;;;;;4990438;28;20483;-65
2021/06/22 10:59:03;;;;;;;5.87;2.37;;;;;;;;;;4988371;28;20951;-65
2021/06/22 11:01:52;;;;;;;5.43;1.63;;;;;;;;;;4978080;28;20451;-65
2021/06/22 11:04:19;;;;;;;3.60;2.17;;;;;;;;;;4989002;28;21040;-65
2021/06/22 11:07:00;;;;;;;4.20;2.20;;;;;;;;;;4990785;28;20454;-65
2021/06/22 11:09:28;;;;;;;3.43;1.80;;;;;;;;;;4991583;28;20823;-65
2021/06/22 11:12:16;;;;;;;3.00;1.53;;;;;;;;;;4990953;28;20542;-65
2021/06/22 11:15:04;;;;;;;4.23;1.70;;;;;;;;;;4989232;28;20497;-65
2021/06/22 11:17:55;;;;;;;3.90;1.80;;;;;;;;;;5029154;23;20504;-72
2021/06/22 11:20:23;;;;;;;5.83;2.20;;;;;;;;;;5014658;28;20445;-72
2021/06/22 11:23:00;;;;;;;4.07;2.30;;;;;;;;;;5014324;28;20461;-72
2021/06/22 11:25:45;;;;;;;5.33;2.33;;;;;;;;;;5013453;28;20452;-72
2021/06/22 11:28:13;;;;;;;3.30;2.20;;;;;;;;;;5014814;28;20493;-72
2021/06/22 11:30:50;;;;;;;4.10;1.90;;;;;;;;;;5033849;28;20444;-72
2021/06/22 11:33:34;;;;;;;3.70;2.10;;;;;;;;;;5020711;28;20955;-72
2021/06/22 11:36:19;;;;;;;3.63;2.60;;;;;;;;;;5021423;28;20500;-72
2021/06/22 11:39:06;;;;;;;5.17;1.73;;;;;;;;;;5019906;28;20812;-72
2021/06/22 11:41:35;;;;;;;4.30;1.90;;;;;;;;;;5015363;28;20948;-71
2021/06/22 11:44:25;;;;;;;7.50;2.37;;;;;;;;;;5017100;28;20460;-72
2021/06/22 11:46:53;;;;;;;4.33;2.43;;;;;;;;;;5014199;28;20471;-72
2021/06/22 11:49:20;;;;;;;3.70;1.90;;;;;;;;;;5032455;28;20871;-72
2021/06/22 11:52:07;;;;;;;4.17;1.83;;;;;;;;;;5014395;28;20461;-72
2021/06/22 11:55:01;;;;;;;3.37;2.37;;;;;;;;;;5015620;28;20979;-72
2021/06/22 11:57:30;;;;;;;3.13;1.73;;;;;;;;;;4982544;28;20918;-72
2021/06/22 11:59:58;;;;;;;3.77;1.70;;;;;;;;;;5014586;28;20453;-72
2021/06/22 12:02:25;;;;;;;3.80;1.87;;;;;;;;;;5021921;28;20485;-72
2021/06/22 12:04:52;;;;;;;3.00;1.67;;;;;;;;;;5015370;28;20458;-72
2021/06/22 12:07:20;;;;;;;9.40;2.30;;;;;;;;;;5025618;28;20475;-71
2021/06/22 12:09:47;;;;;;;3.13;1.60;;;;;;;;;;5032895;28;20461;-72
2021/06/22 12:12:15;;;;;;;2.30;1.87;;;;;;;;;;5034035;28;20457;-72
2021/06/22 12:14:46;;;;;;;2.80;1.87;;;;;;;;;;5034453;28;20448;-71
2021/06/22 12:17:14;;;;;;;4.43;2.03;;;;;;;;;;5032820;28;20834;-72
2021/06/22 12:19:41;;;;;;;3.30;1.80;;;;;;;;;;5034213;28;20814;-72
2021/06/22 12:22:11;;;;;;;2.70;1.80;;;;;;;;;;5026419;28;20784;-71
2021/06/22 12:24:39;;;;;;;2.97;1.60;;;;;;;;;;5034202;28;20448;-72
2021/06/22 12:27:07;;;;;;;3.80;1.77;;;;;;;;;;5033385;28;20518;-72
2021/06/22 12:29:34;;;;;;;3.97;1.80;;;;;;;;;;5033942;28;20456;-72
2021/06/22 12:32:03;;;;;;;5.47;2.03;;;;;;;;;;5031015;28;20830;-72
2021/06/22 12:34:31;;;;;;;3.90;1.90;;;;;;;;;;5014527;28;20452;-72
2021/06/22 12:36:59;;;;;;;3.07;1.73;;;;;;;;;;5020514;28;20560;-73
2021/06/22 12:39:27;;;;;;;3.20;1.93;;;;;;;;;;5033856;28;20543;-72
2021/06/22 12:42:03;;;;;;;4.13;1.70;;;;;;;;;;5033049;28;20457;-72
2021/06/22 12:44:30;;;;;;;6.13;1.90;;;;;;;;;;5034069;28;20830;-71
2021/06/22 12:46:58;;;;;;;3.53;1.90;;;;;;;;;;5032411;28;20468;-72
2021/06/22 12:49:28;;;;;;;3.50;1.60;;;;;;;;;;5034193;28;20480;-71
2021/06/22 12:51:58;;;;;;;5.90;1.80;;;;;;;;;;5024682;28;20488;-72
2021/06/22 12:54:26;;;;;;;3.67;1.73;;;;;;;;;;5014953;28;20886;-71
2021/06/22 12:56:55;;;;;;;5.80;2.13;;;;;;;;;;5022390;28;20874;-71
2021/06/22 12:59:23;;;;;;;3.80;1.97;;;;;;;;;;5033592;28;20492;-72
2021/06/22 13:01:50;;;;;;;3.13;1.23;;;;;;;;;;5032724;28;20976;-72
2021/06/22 13:04:19;;;;;;;4.37;2.20;;;;;;;;;;5033362;28;20455;-71
2021/06/22 13:06:48;;;;;;;3.20;1.73;;;;;;;;;;5027001;28;20450;-72
2021/06/22 13:09:16;;;;;;;4.10;1.50;;;;;;;;;;5029785;28;20455;-71
2021/06/22 13:11:53;;;;;;;3.23;2.07;;;;;;;;;;5032912;28;20465;-71
2021/06/22 13:14:21;;;;;;;4.10;1.80;;;;;;;;;;5020299;28;20457;-71
2021/06/22 13:16:56;;;;;;;4.20;1.73;;;;;;;;;;5019854;28;22270;-70
2021/06/22 13:19:23;;;;;;;4.37;1.70;;;;;;;;;;5034005;28;20448;-71
2021/06/22 13:21:53;;;;;;;4.87;2.00;;;;;;;;;;5027610;28;20453;-70
2021/06/22 13:24:40;;;;;;;3.10;1.73;;;;;;;;;;5027912;28;20455;-70
2021/06/22 13:27:09;;;;;;;3.60;2.03;;;;;;;;;;5029927;28;20484;-70
2021/06/22 13:29:55;;;;;;;5.03;1.90;;;;;;;;;;5032961;28;20448;-71
2021/06/22 13:32:26;;;;;;;3.33;1.50;;;;;;;;;;5024668;28;20448;-71
2021/06/22 13:34:53;;;;;;;5.60;1.90;;;;;;;;;;5014630;28;20450;-71
2021/06/22 13:37:22;;;;;;;3.30;1.80;;;;;;;;;;5015941;28;20980;-71
2021/06/22 13:39:52;;;;;;;5.23;2.20;;;;;;;;;;5024701;28;20471;-71
2021/06/22 13:42:19;;;;;;;5.90;2.07;;;;;;;;;;5015934;28;20454;-71
2021/06/22 13:44:48;;;;;;;3.23;1.67;;;;;;;;;;5014738;28;20916;-71
2021/06/22 13:47:30;;;;;;;3.63;1.70;;;;;;;;;;5012591;28;20474;-71
2021/06/22 13:49:59;;;;;;;3.70;1.90;;;;;;;;;;5020100;28;20575;-71
2021/06/22 13:52:27;;;;;;;2.63;1.50;;;;;;;;;;5018184;28;20519;-70
2021/06/22 13:54:55;;;;;;;3.70;1.80;;;;;;;;;;5018577;28;20445;-71
2021/06/22 13:57:22;;;;;;;7.50;2.17;;;;;;;;;;5031051;28;20488;-70
2021/06/22 13:59:49;;;;;;;2.73;1.47;;;;;;;;;;5030366;28;20487;-71
2021/06/22 14:02:16;;;;;;;4.13;1.80;;;;;;;;;;5028025;28;20460;-71
2021/06/22 14:04:44;;;;;;;3.30;1.70;;;;;;;;;;5012702;28;21460;-71
2021/06/22 14:07:12;;;;;;;4.23;1.87;;;;;;;;;;5019458;28;20567;-71
2021/06/22 14:09:40;;;;;;;5.47;1.70;;;;;;;;;;5026126;28;20467;-71
2021/06/22 14:12:07;;;;;;;2.27;1.53;;;;;;;;;;5029630;28;20817;-71
2021/06/22 14:14:35;;;;;;;4.17;1.47;;;;;;;;;;5030986;28;20449;-70
2021/06/22 14:17:02;;;;;;;4.10;1.77;;;;;;;;;;5029048;28;20999;-71
2021/06/22 14:19:29;;;;;;;3.57;1.70;;;;;;;;;;5031284;28;20447;-71
2021/06/22 14:21:56;;;;;;;2.97;1.67;;;;;;;;;;5013171;28;20450;-71
2021/06/22 14:24:24;;;;;;;3.43;1.60;;;;;;;;;;5017899;28;20560;-72
2021/06/22 14:26:52;;;;;;;2.60;1.67;;;;;;;;;;5029861;28;20480;-71
2021/06/22 14:29:19;;;;;;;3.30;2.10;;;;;;;;;;5028264;28;20960;-71
2021/06/22 14:31:46;;;;;;;3.17;1.50;;;;;;;;;;5031602;28;20465;-70
2021/06/22 14:34:16;;;;;;;3.40;1.67;;;;;;;;;;5015688;28;20484;-70
2021/06/22 14:36:43;;;;;;;2.60;1.50;;;;;;;;;;5029618;28;20511;-72
2021/06/22 14:39:10;;;;;;;3.73;1.30;;;;;;;;;;5021184;28;20457;-71
2021/06/22 14:41:37;;;;;;;3.73;1.57;;;;;;;;;;5030683;28;20998;-72
2021/06/22 14:44:06;;;;;;;4.50;1.43;;;;;;;;;;5028595;28;20456;-72
2021/06/22 14:46:33;;;;;;;3.77;1.40;;;;;;;;;;5029920;28;20445;-73
2021/06/22 14:49:00;;;;;;;5.47;1.50;;;;;;;;;;5031910;28;20487;-72
2021/06/22 14:51:27;;;;;;;3.43;1.50;;;;;;;;;;5018182;28;20450;-73
2021/06/22 14:53:54;;;;;;;4.17;1.90;;;;;;;;;;5034939;28;20459;-72